sensor_id;sensor_type;location;lat;lon;timestamp;P1;durP1;ratioP1;P2;durP2;ratioP2
72301;SDS011;60235;52.234;5.186;2023-04-09T00:02:19;34.03;;;15.75;;
72301;SDS011;60235;52.234;5.186;2023-04-09T00:04:45;34.63;;;15.93;;
72301;SDS011;60235;52.234;5.186;2023-04-09T00:07:11;37.95;;;15.85;;
72301;SDS011;60235;52.234;5.186;2023-04-09T00:09:37;35.72;;;15.73;;
72301;SDS011;60235;52.234;5.186;2023-04-09T00:12:03;32.65;;;16.13;;
72301;SDS011;60235;52.234;5.186;2023-04-09T00:14:29;38.45;;;16.25;;
72301;SDS011;60235;52.234;5.186;2023-04-09T00:16:55;34.17;;;16.00;;
72301;SDS011;60235;52.234;5.186;2023-04-09T00:19:21;36.17;;;16.35;;
72301;SDS011;60235;52.234;5.186;2023-04-09T00:21:47;35.38;;;16.58;;
72301;SDS011;60235;52.234;5.186;2023-04-09T00:24:13;37.83;;;17.10;;
72301;SDS011;60235;52.234;5.186;2023-04-09T00:26:40;37.25;;;16.58;;
72301;SDS011;60235;52.234;5.186;2023-04-09T00:29:06;35.97;;;16.40;;
72301;SDS011;60235;52.234;5.186;2023-04-09T00:31:31;38.08;;;16.83;;
72301;SDS011;60235;52.234;5.186;2023-04-09T00:33:58;38.15;;;17.92;;
72301;SDS011;60235;52.234;5.186;2023-04-09T00:36:24;43.55;;;18.10;;
72301;SDS011;60235;52.234;5.186;2023-04-09T00:38:50;41.13;;;17.80;;
72301;SDS011;60235;52.234;5.186;2023-04-09T00:41:17;35.47;;;15.90;;
72301;SDS011;60235;52.234;5.186;2023-04-09T00:43:43;33.17;;;16.23;;
72301;SDS011;60235;52.234;5.186;2023-04-09T00:46:10;37.53;;;15.80;;
72301;SDS011;60235;52.234;5.186;2023-04-09T00:48:36;37.67;;;16.30;;
72301;SDS011;60235;52.234;5.186;2023-04-09T00:51:02;38.90;;;17.58;;
72301;SDS011;60235;52.234;5.186;2023-04-09T00:53:28;38.45;;;16.27;;
72301;SDS011;60235;52.234;5.186;2023-04-09T00:55:54;38.63;;;16.48;;
72301;SDS011;60235;52.234;5.186;2023-04-09T00:58:20;38.28;;;16.92;;
72301;SDS011;60235;52.234;5.186;2023-04-09T01:00:46;36.28;;;16.88;;
72301;SDS011;60235;52.234;5.186;2023-04-09T01:03:12;37.20;;;15.95;;
72301;SDS011;60235;52.234;5.186;2023-04-09T01:08:17;40.42;;;16.67;;
72301;SDS011;60235;52.234;5.186;2023-04-09T01:10:57;35.53;;;16.60;;
72301;SDS011;60235;52.234;5.186;2023-04-09T01:13:34;41.55;;;17.20;;
72301;SDS011;60235;52.234;5.186;2023-04-09T01:16:04;40.15;;;15.98;;
72301;SDS011;60235;52.234;5.186;2023-04-09T01:21:07;42.00;;;17.40;;
72301;SDS011;60235;52.234;5.186;2023-04-09T01:29:16;41.78;;;17.02;;
72301;SDS011;60235;52.234;5.186;2023-04-09T01:31:43;42.33;;;16.75;;
72301;SDS011;60235;52.234;5.186;2023-04-09T01:34:10;37.53;;;17.15;;
72301;SDS011;60235;52.234;5.186;2023-04-09T01:36:36;42.65;;;16.58;;
72301;SDS011;60235;52.234;5.186;2023-04-09T01:39:04;44.55;;;16.92;;
72301;SDS011;60235;52.234;5.186;2023-04-09T01:41:31;43.97;;;17.13;;
72301;SDS011;60235;52.234;5.186;2023-04-09T01:43:58;44.85;;;17.65;;
72301;SDS011;60235;52.234;5.186;2023-04-09T01:46:25;45.75;;;16.95;;
72301;SDS011;60235;52.234;5.186;2023-04-09T01:48:52;42.78;;;17.23;;
72301;SDS011;60235;52.234;5.186;2023-04-09T01:51:18;49.10;;;17.35;;
72301;SDS011;60235;52.234;5.186;2023-04-09T01:53:44;45.60;;;17.70;;
72301;SDS011;60235;52.234;5.186;2023-04-09T01:56:10;47.22;;;18.08;;
72301;SDS011;60235;52.234;5.186;2023-04-09T01:58:36;47.85;;;17.73;;
72301;SDS011;60235;52.234;5.186;2023-04-09T02:01:07;50.40;;;18.17;;
72301;SDS011;60235;52.234;5.186;2023-04-09T02:03:39;44.60;;;16.70;;
72301;SDS011;60235;52.234;5.186;2023-04-09T02:06:15;42.05;;;17.42;;
72301;SDS011;60235;52.234;5.186;2023-04-09T02:08:43;46.28;;;16.83;;
72301;SDS011;60235;52.234;5.186;2023-04-09T02:11:09;42.67;;;17.27;;
72301;SDS011;60235;52.234;5.186;2023-04-09T02:13:36;44.22;;;17.58;;
72301;SDS011;60235;52.234;5.186;2023-04-09T02:16:02;44.22;;;18.52;;
72301;SDS011;60235;52.234;5.186;2023-04-09T02:18:29;41.90;;;16.50;;
72301;SDS011;60235;52.234;5.186;2023-04-09T02:20:57;49.67;;;18.20;;
72301;SDS011;60235;52.234;5.186;2023-04-09T02:23:23;46.85;;;17.73;;
72301;SDS011;60235;52.234;5.186;2023-04-09T02:25:50;43.42;;;17.67;;
72301;SDS011;60235;52.234;5.186;2023-04-09T02:28:16;49.50;;;18.73;;
72301;SDS011;60235;52.234;5.186;2023-04-09T02:30:42;47.72;;;18.48;;
72301;SDS011;60235;52.234;5.186;2023-04-09T02:33:08;48.35;;;18.38;;
72301;SDS011;60235;52.234;5.186;2023-04-09T02:35:34;48.10;;;18.70;;
72301;SDS011;60235;52.234;5.186;2023-04-09T02:38:00;42.38;;;17.00;;
72301;SDS011;60235;52.234;5.186;2023-04-09T02:40:26;46.22;;;18.33;;
72301;SDS011;60235;52.234;5.186;2023-04-09T02:42:52;43.47;;;18.00;;
72301;SDS011;60235;52.234;5.186;2023-04-09T02:45:18;49.55;;;18.77;;
72301;SDS011;60235;52.234;5.186;2023-04-09T02:47:44;47.30;;;17.60;;
72301;SDS011;60235;52.234;5.186;2023-04-09T02:50:10;48.38;;;16.80;;
72301;SDS011;60235;52.234;5.186;2023-04-09T02:52:36;46.53;;;17.85;;
72301;SDS011;60235;52.234;5.186;2023-04-09T02:55:02;50.83;;;19.17;;
72301;SDS011;60235;52.234;5.186;2023-04-09T02:57:28;50.17;;;19.33;;
72301;SDS011;60235;52.234;5.186;2023-04-09T02:59:54;44.47;;;18.15;;
72301;SDS011;60235;52.234;5.186;2023-04-09T03:02:20;44.70;;;17.50;;
72301;SDS011;60235;52.234;5.186;2023-04-09T03:04:46;49.53;;;19.00;;
72301;SDS011;60235;52.234;5.186;2023-04-09T03:07:12;50.50;;;17.65;;
72301;SDS011;60235;52.234;5.186;2023-04-09T03:09:38;49.83;;;17.63;;
72301;SDS011;60235;52.234;5.186;2023-04-09T03:12:04;47.88;;;17.08;;
72301;SDS011;60235;52.234;5.186;2023-04-09T03:14:30;46.05;;;18.15;;
72301;SDS011;60235;52.234;5.186;2023-04-09T03:16:56;51.20;;;17.80;;
72301;SDS011;60235;52.234;5.186;2023-04-09T03:19:22;45.55;;;17.77;;
72301;SDS011;60235;52.234;5.186;2023-04-09T03:21:48;49.95;;;18.60;;
72301;SDS011;60235;52.234;5.186;2023-04-09T03:24:15;51.80;;;18.13;;
72301;SDS011;60235;52.234;5.186;2023-04-09T03:26:41;49.55;;;18.38;;
72301;SDS011;60235;52.234;5.186;2023-04-09T03:29:07;46.00;;;18.80;;
72301;SDS011;60235;52.234;5.186;2023-04-09T03:31:33;43.72;;;16.88;;
72301;SDS011;60235;52.234;5.186;2023-04-09T03:33:59;43.80;;;18.23;;
72301;SDS011;60235;52.234;5.186;2023-04-09T03:36:25;48.17;;;18.92;;
72301;SDS011;60235;52.234;5.186;2023-04-09T03:38:52;43.80;;;17.92;;
72301;SDS011;60235;52.234;5.186;2023-04-09T03:41:18;48.30;;;17.98;;
72301;SDS011;60235;52.234;5.186;2023-04-09T03:43:44;46.45;;;18.63;;
72301;SDS011;60235;52.234;5.186;2023-04-09T03:46:15;45.85;;;17.88;;
72301;SDS011;60235;52.234;5.186;2023-04-09T03:48:41;51.42;;;19.67;;
72301;SDS011;60235;52.234;5.186;2023-04-09T03:51:12;50.15;;;18.42;;
72301;SDS011;60235;52.234;5.186;2023-04-09T03:53:38;42.42;;;17.13;;
72301;SDS011;60235;52.234;5.186;2023-04-09T03:56:04;43.17;;;17.35;;
72301;SDS011;60235;52.234;5.186;2023-04-09T03:58:30;45.40;;;18.25;;
72301;SDS011;60235;52.234;5.186;2023-04-09T04:00:56;43.72;;;17.10;;
72301;SDS011;60235;52.234;5.186;2023-04-09T04:03:22;46.40;;;18.73;;
72301;SDS011;60235;52.234;5.186;2023-04-09T04:05:48;45.92;;;18.17;;
72301;SDS011;60235;52.234;5.186;2023-04-09T04:08:14;47.65;;;18.58;;
72301;SDS011;60235;52.234;5.186;2023-04-09T04:10:41;49.45;;;17.90;;
72301;SDS011;60235;52.234;5.186;2023-04-09T04:13:07;50.45;;;19.42;;
72301;SDS011;60235;52.234;5.186;2023-04-09T04:15:33;47.63;;;19.33;;
72301;SDS011;60235;52.234;5.186;2023-04-09T04:18:04;49.42;;;19.35;;
72301;SDS011;60235;52.234;5.186;2023-04-09T04:20:31;44.78;;;16.75;;
72301;SDS011;60235;52.234;5.186;2023-04-09T04:22:57;48.83;;;19.23;;
72301;SDS011;60235;52.234;5.186;2023-04-09T04:25:23;43.17;;;18.08;;
72301;SDS011;60235;52.234;5.186;2023-04-09T04:27:49;44.17;;;17.58;;
72301;SDS011;60235;52.234;5.186;2023-04-09T04:30:15;46.65;;;19.35;;
72301;SDS011;60235;52.234;5.186;2023-04-09T04:32:42;49.42;;;19.27;;
72301;SDS011;60235;52.234;5.186;2023-04-09T04:35:08;43.00;;;17.77;;
72301;SDS011;60235;52.234;5.186;2023-04-09T04:37:34;42.45;;;16.90;;
72301;SDS011;60235;52.234;5.186;2023-04-09T04:40:00;48.55;;;19.02;;
72301;SDS011;60235;52.234;5.186;2023-04-09T04:42:27;43.83;;;17.80;;
72301;SDS011;60235;52.234;5.186;2023-04-09T04:44:53;48.83;;;18.05;;
72301;SDS011;60235;52.234;5.186;2023-04-09T04:47:19;44.42;;;17.33;;
72301;SDS011;60235;52.234;5.186;2023-04-09T04:49:46;42.55;;;17.42;;
72301;SDS011;60235;52.234;5.186;2023-04-09T04:52:12;42.00;;;16.58;;
72301;SDS011;60235;52.234;5.186;2023-04-09T04:54:38;40.28;;;16.20;;
72301;SDS011;60235;52.234;5.186;2023-04-09T04:57:04;39.88;;;16.77;;
72301;SDS011;60235;52.234;5.186;2023-04-09T04:59:30;43.45;;;18.00;;
72301;SDS011;60235;52.234;5.186;2023-04-09T05:01:56;41.53;;;16.08;;
72301;SDS011;60235;52.234;5.186;2023-04-09T05:04:22;41.50;;;17.67;;
72301;SDS011;60235;52.234;5.186;2023-04-09T05:06:48;42.72;;;18.02;;
72301;SDS011;60235;52.234;5.186;2023-04-09T05:09:14;40.85;;;17.52;;
72301;SDS011;60235;52.234;5.186;2023-04-09T05:11:40;43.75;;;17.95;;
72301;SDS011;60235;52.234;5.186;2023-04-09T05:14:06;39.40;;;18.02;;
72301;SDS011;60235;52.234;5.186;2023-04-09T05:16:32;39.63;;;16.42;;
72301;SDS011;60235;52.234;5.186;2023-04-09T05:18:58;37.72;;;17.13;;
72301;SDS011;60235;52.234;5.186;2023-04-09T05:21:24;43.45;;;17.40;;
72301;SDS011;60235;52.234;5.186;2023-04-09T05:23:51;39.22;;;15.88;;
72301;SDS011;60235;52.234;5.186;2023-04-09T05:26:18;39.25;;;16.58;;
72301;SDS011;60235;52.234;5.186;2023-04-09T05:28:45;44.30;;;16.17;;
72301;SDS011;60235;52.234;5.186;2023-04-09T05:31:11;42.28;;;16.70;;
72301;SDS011;60235;52.234;5.186;2023-04-09T05:33:39;36.90;;;16.17;;
72301;SDS011;60235;52.234;5.186;2023-04-09T05:36:05;46.60;;;17.67;;
72301;SDS011;60235;52.234;5.186;2023-04-09T05:38:31;41.17;;;17.15;;
72301;SDS011;60235;52.234;5.186;2023-04-09T05:40:58;40.88;;;16.45;;
72301;SDS011;60235;52.234;5.186;2023-04-09T05:43:24;39.60;;;16.38;;
72301;SDS011;60235;52.234;5.186;2023-04-09T05:45:50;38.80;;;16.73;;
72301;SDS011;60235;52.234;5.186;2023-04-09T05:48:16;42.47;;;16.75;;
72301;SDS011;60235;52.234;5.186;2023-04-09T05:50:49;39.67;;;17.45;;
72301;SDS011;60235;52.234;5.186;2023-04-09T05:53:16;41.90;;;16.58;;
72301;SDS011;60235;52.234;5.186;2023-04-09T05:55:43;38.47;;;17.30;;
72301;SDS011;60235;52.234;5.186;2023-04-09T05:58:09;43.97;;;16.73;;
72301;SDS011;60235;52.234;5.186;2023-04-09T06:00:35;41.50;;;17.30;;
72301;SDS011;60235;52.234;5.186;2023-04-09T06:03:01;41.42;;;16.58;;
72301;SDS011;60235;52.234;5.186;2023-04-09T06:05:27;39.10;;;16.90;;
72301;SDS011;60235;52.234;5.186;2023-04-09T06:07:53;39.95;;;16.77;;
72301;SDS011;60235;52.234;5.186;2023-04-09T06:10:19;35.22;;;15.88;;
72301;SDS011;60235;52.234;5.186;2023-04-09T06:12:45;44.05;;;16.73;;
72301;SDS011;60235;52.234;5.186;2023-04-09T06:15:11;38.17;;;16.38;;
72301;SDS011;60235;52.234;5.186;2023-04-09T06:17:37;37.80;;;16.35;;
72301;SDS011;60235;52.234;5.186;2023-04-09T06:20:03;36.50;;;15.77;;
72301;SDS011;60235;52.234;5.186;2023-04-09T06:22:30;44.15;;;16.30;;
72301;SDS011;60235;52.234;5.186;2023-04-09T06:24:56;35.30;;;15.23;;
72301;SDS011;60235;52.234;5.186;2023-04-09T06:27:22;36.25;;;15.25;;
72301;SDS011;60235;52.234;5.186;2023-04-09T06:29:48;38.10;;;16.00;;
72301;SDS011;60235;52.234;5.186;2023-04-09T06:32:15;40.85;;;15.77;;
72301;SDS011;60235;52.234;5.186;2023-04-09T06:34:41;40.80;;;16.60;;
72301;SDS011;60235;52.234;5.186;2023-04-09T06:37:07;46.55;;;16.35;;
72301;SDS011;60235;52.234;5.186;2023-04-09T06:39:33;40.42;;;15.63;;
72301;SDS011;60235;52.234;5.186;2023-04-09T06:41:59;35.22;;;15.35;;
72301;SDS011;60235;52.234;5.186;2023-04-09T06:44:25;39.47;;;15.25;;
72301;SDS011;60235;52.234;5.186;2023-04-09T06:46:51;36.70;;;16.00;;
72301;SDS011;60235;52.234;5.186;2023-04-09T06:49:17;38.17;;;16.83;;
72301;SDS011;60235;52.234;5.186;2023-04-09T06:51:43;36.72;;;16.00;;
72301;SDS011;60235;52.234;5.186;2023-04-09T06:54:09;38.47;;;17.42;;
72301;SDS011;60235;52.234;5.186;2023-04-09T06:56:35;41.05;;;16.73;;
72301;SDS011;60235;52.234;5.186;2023-04-09T06:59:01;42.13;;;16.58;;
72301;SDS011;60235;52.234;5.186;2023-04-09T07:01:27;44.53;;;17.85;;
72301;SDS011;60235;52.234;5.186;2023-04-09T07:03:53;39.45;;;16.25;;
72301;SDS011;60235;52.234;5.186;2023-04-09T07:06:19;42.95;;;16.85;;
72301;SDS011;60235;52.234;5.186;2023-04-09T07:08:45;41.08;;;17.30;;
72301;SDS011;60235;52.234;5.186;2023-04-09T07:11:11;41.88;;;16.77;;
72301;SDS011;60235;52.234;5.186;2023-04-09T07:13:37;45.47;;;17.95;;
72301;SDS011;60235;52.234;5.186;2023-04-09T07:16:03;43.13;;;17.88;;
72301;SDS011;60235;52.234;5.186;2023-04-09T07:18:29;44.28;;;18.85;;
72301;SDS011;60235;52.234;5.186;2023-04-09T07:20:55;41.75;;;17.63;;
72301;SDS011;60235;52.234;5.186;2023-04-09T07:23:21;43.40;;;18.70;;
72301;SDS011;60235;52.234;5.186;2023-04-09T07:25:47;47.70;;;18.27;;
72301;SDS011;60235;52.234;5.186;2023-04-09T07:28:13;44.88;;;18.58;;
72301;SDS011;60235;52.234;5.186;2023-04-09T07:30:39;46.80;;;19.15;;
72301;SDS011;60235;52.234;5.186;2023-04-09T07:33:06;49.10;;;20.02;;
72301;SDS011;60235;52.234;5.186;2023-04-09T07:35:32;49.20;;;18.45;;
72301;SDS011;60235;52.234;5.186;2023-04-09T07:37:58;48.17;;;19.42;;
72301;SDS011;60235;52.234;5.186;2023-04-09T07:40:24;46.50;;;18.38;;
72301;SDS011;60235;52.234;5.186;2023-04-09T07:42:51;48.03;;;19.33;;
72301;SDS011;60235;52.234;5.186;2023-04-09T07:45:18;50.45;;;20.23;;
72301;SDS011;60235;52.234;5.186;2023-04-09T07:47:44;47.53;;;19.50;;
72301;SDS011;60235;52.234;5.186;2023-04-09T07:50:10;45.08;;;20.17;;
72301;SDS011;60235;52.234;5.186;2023-04-09T07:52:36;46.63;;;19.45;;
72301;SDS011;60235;52.234;5.186;2023-04-09T07:55:02;47.83;;;18.38;;
72301;SDS011;60235;52.234;5.186;2023-04-09T07:57:31;47.65;;;19.48;;
72301;SDS011;60235;52.234;5.186;2023-04-09T07:59:57;46.08;;;18.73;;
72301;SDS011;60235;52.234;5.186;2023-04-09T08:02:23;50.63;;;19.45;;
72301;SDS011;60235;52.234;5.186;2023-04-09T08:04:50;45.50;;;20.08;;
72301;SDS011;60235;52.234;5.186;2023-04-09T08:07:16;46.22;;;18.23;;
72301;SDS011;60235;52.234;5.186;2023-04-09T08:09:42;48.63;;;19.63;;
72301;SDS011;60235;52.234;5.186;2023-04-09T08:12:08;42.08;;;18.73;;
72301;SDS011;60235;52.234;5.186;2023-04-09T08:14:35;45.25;;;19.15;;
72301;SDS011;60235;52.234;5.186;2023-04-09T08:17:01;46.20;;;17.92;;
72301;SDS011;60235;52.234;5.186;2023-04-09T08:19:27;45.17;;;19.33;;
72301;SDS011;60235;52.234;5.186;2023-04-09T08:21:53;42.05;;;18.02;;
72301;SDS011;60235;52.234;5.186;2023-04-09T08:24:19;42.13;;;17.55;;
72301;SDS011;60235;52.234;5.186;2023-04-09T08:26:45;46.97;;;18.55;;
72301;SDS011;60235;52.234;5.186;2023-04-09T08:29:11;42.15;;;18.02;;
72301;SDS011;60235;52.234;5.186;2023-04-09T08:31:38;36.50;;;16.08;;
72301;SDS011;60235;52.234;5.186;2023-04-09T08:34:04;36.33;;;16.20;;
72301;SDS011;60235;52.234;5.186;2023-04-09T08:36:30;38.17;;;16.20;;
72301;SDS011;60235;52.234;5.186;2023-04-09T08:38:56;36.88;;;16.17;;
72301;SDS011;60235;52.234;5.186;2023-04-09T08:41:24;37.30;;;16.27;;
72301;SDS011;60235;52.234;5.186;2023-04-09T08:43:53;36.28;;;16.45;;
72301;SDS011;60235;52.234;5.186;2023-04-09T08:46:19;37.13;;;16.25;;
72301;SDS011;60235;52.234;5.186;2023-04-09T08:48:46;41.63;;;17.70;;
72301;SDS011;60235;52.234;5.186;2023-04-09T08:51:16;38.67;;;16.10;;
72301;SDS011;60235;52.234;5.186;2023-04-09T08:53:45;35.85;;;14.60;;
72301;SDS011;60235;52.234;5.186;2023-04-09T08:56:12;37.65;;;15.40;;
72301;SDS011;60235;52.234;5.186;2023-04-09T08:58:42;35.05;;;14.52;;
72301;SDS011;60235;52.234;5.186;2023-04-09T09:01:21;35.78;;;15.85;;
72301;SDS011;60235;52.234;5.186;2023-04-09T09:06:28;32.65;;;15.27;;
72301;SDS011;60235;52.234;5.186;2023-04-09T09:11:25;32.65;;;14.75;;
72301;SDS011;60235;52.234;5.186;2023-04-09T09:14:25;32.47;;;14.48;;
72301;SDS011;60235;52.234;5.186;2023-04-09T09:21:55;33.58;;;15.27;;
72301;SDS011;60235;52.234;5.186;2023-04-09T09:24:21;29.85;;;14.15;;
72301;SDS011;60235;52.234;5.186;2023-04-09T09:26:47;29.55;;;14.85;;
72301;SDS011;60235;52.234;5.186;2023-04-09T09:29:13;33.15;;;15.23;;
72301;SDS011;60235;52.234;5.186;2023-04-09T09:31:46;32.78;;;15.23;;
72301;SDS011;60235;52.234;5.186;2023-04-09T09:34:13;32.22;;;14.90;;
72301;SDS011;60235;52.234;5.186;2023-04-09T09:36:39;30.38;;;13.85;;
72301;SDS011;60235;52.234;5.186;2023-04-09T09:39:05;33.75;;;15.68;;
72301;SDS011;60235;52.234;5.186;2023-04-09T09:41:36;31.77;;;14.80;;
72301;SDS011;60235;52.234;5.186;2023-04-09T09:44:02;33.25;;;15.32;;
72301;SDS011;60235;52.234;5.186;2023-04-09T09:46:33;29.23;;;15.23;;
72301;SDS011;60235;52.234;5.186;2023-04-09T09:48:59;31.63;;;14.88;;
72301;SDS011;60235;52.234;5.186;2023-04-09T09:51:26;31.83;;;16.45;;
72301;SDS011;60235;52.234;5.186;2023-04-09T09:53:53;31.70;;;15.93;;
72301;SDS011;60235;52.234;5.186;2023-04-09T09:56:21;37.72;;;17.38;;
72301;SDS011;60235;52.234;5.186;2023-04-09T09:58:55;33.08;;;16.13;;
72301;SDS011;60235;52.234;5.186;2023-04-09T10:01:22;31.30;;;16.00;;
72301;SDS011;60235;52.234;5.186;2023-04-09T10:03:49;35.70;;;16.25;;
72301;SDS011;60235;52.234;5.186;2023-04-09T10:06:16;32.10;;;15.70;;
72301;SDS011;60235;52.234;5.186;2023-04-09T10:08:43;32.58;;;16.77;;
72301;SDS011;60235;52.234;5.186;2023-04-09T10:11:09;29.38;;;15.35;;
72301;SDS011;60235;52.234;5.186;2023-04-09T10:13:38;32.00;;;16.98;;
72301;SDS011;60235;52.234;5.186;2023-04-09T10:16:04;34.65;;;17.25;;
72301;SDS011;60235;52.234;5.186;2023-04-09T10:18:32;29.52;;;15.52;;
72301;SDS011;60235;52.234;5.186;2023-04-09T10:21:08;31.92;;;16.00;;
72301;SDS011;60235;52.234;5.186;2023-04-09T10:23:41;32.35;;;16.83;;
72301;SDS011;60235;52.234;5.186;2023-04-09T10:26:08;31.63;;;16.38;;
72301;SDS011;60235;52.234;5.186;2023-04-09T10:28:37;30.42;;;15.88;;
72301;SDS011;60235;52.234;5.186;2023-04-09T10:33:30;30.05;;;15.68;;
72301;SDS011;60235;52.234;5.186;2023-04-09T10:36:03;35.85;;;16.90;;
72301;SDS011;60235;52.234;5.186;2023-04-09T10:41:05;33.28;;;16.17;;
72301;SDS011;60235;52.234;5.186;2023-04-09T10:43:31;32.58;;;16.45;;
72301;SDS011;60235;52.234;5.186;2023-04-09T10:45:59;32.17;;;17.75;;
72301;SDS011;60235;52.234;5.186;2023-04-09T10:48:25;31.85;;;17.17;;
72301;SDS011;60235;52.234;5.186;2023-04-09T10:50:51;34.35;;;17.10;;
72301;SDS011;60235;52.234;5.186;2023-04-09T10:53:24;33.28;;;17.08;;
72301;SDS011;60235;52.234;5.186;2023-04-09T10:55:51;36.20;;;17.67;;
72301;SDS011;60235;52.234;5.186;2023-04-09T10:58:18;39.00;;;17.75;;
72301;SDS011;60235;52.234;5.186;2023-04-09T11:00:45;31.70;;;17.67;;
72301;SDS011;60235;52.234;5.186;2023-04-09T11:03:21;32.10;;;17.27;;
72301;SDS011;60235;52.234;5.186;2023-04-09T11:05:49;32.83;;;16.42;;
72301;SDS011;60235;52.234;5.186;2023-04-09T11:08:16;30.95;;;16.67;;
72301;SDS011;60235;52.234;5.186;2023-04-09T11:10:43;30.52;;;16.00;;
72301;SDS011;60235;52.234;5.186;2023-04-09T11:13:15;29.45;;;14.73;;
72301;SDS011;60235;52.234;5.186;2023-04-09T11:15:42;33.22;;;16.33;;
72301;SDS011;60235;52.234;5.186;2023-04-09T11:18:08;28.00;;;14.85;;
72301;SDS011;60235;52.234;5.186;2023-04-09T11:20:34;29.38;;;15.02;;
72301;SDS011;60235;52.234;5.186;2023-04-09T11:23:01;31.15;;;15.95;;
72301;SDS011;60235;52.234;5.186;2023-04-09T11:25:28;28.67;;;15.07;;
72301;SDS011;60235;52.234;5.186;2023-04-09T11:27:55;32.00;;;16.92;;
72301;SDS011;60235;52.234;5.186;2023-04-09T11:30:21;31.92;;;16.80;;
72301;SDS011;60235;52.234;5.186;2023-04-09T11:32:48;27.33;;;15.80;;
72301;SDS011;60235;52.234;5.186;2023-04-09T11:35:14;26.27;;;13.18;;
72301;SDS011;60235;52.234;5.186;2023-04-09T11:37:41;22.02;;;13.52;;
72301;SDS011;60235;52.234;5.186;2023-04-09T11:40:18;28.10;;;14.02;;
72301;SDS011;60235;52.234;5.186;2023-04-09T11:42:45;27.30;;;14.30;;
72301;SDS011;60235;52.234;5.186;2023-04-09T11:45:13;25.65;;;13.57;;
72301;SDS011;60235;52.234;5.186;2023-04-09T11:47:39;29.45;;;14.02;;
72301;SDS011;60235;52.234;5.186;2023-04-09T11:50:06;25.83;;;13.55;;
72301;SDS011;60235;52.234;5.186;2023-04-09T11:52:32;24.40;;;13.27;;
72301;SDS011;60235;52.234;5.186;2023-04-09T11:55:00;23.90;;;12.60;;
72301;SDS011;60235;52.234;5.186;2023-04-09T11:57:38;27.13;;;13.82;;
72301;SDS011;60235;52.234;5.186;2023-04-09T12:00:06;25.52;;;12.60;;
72301;SDS011;60235;52.234;5.186;2023-04-09T12:02:33;23.50;;;12.68;;
72301;SDS011;60235;52.234;5.186;2023-04-09T12:05:02;24.70;;;12.48;;
72301;SDS011;60235;52.234;5.186;2023-04-09T12:07:34;21.83;;;13.07;;
72301;SDS011;60235;52.234;5.186;2023-04-09T12:10:04;23.75;;;12.98;;
72301;SDS011;60235;52.234;5.186;2023-04-09T12:12:38;25.55;;;12.98;;
72301;SDS011;60235;52.234;5.186;2023-04-09T12:15:11;23.75;;;13.77;;
72301;SDS011;60235;52.234;5.186;2023-04-09T12:17:37;24.50;;;13.25;;
72301;SDS011;60235;52.234;5.186;2023-04-09T12:20:03;24.33;;;12.10;;
72301;SDS011;60235;52.234;5.186;2023-04-09T12:22:32;23.33;;;12.05;;
72301;SDS011;60235;52.234;5.186;2023-04-09T12:24:58;23.38;;;12.57;;
72301;SDS011;60235;52.234;5.186;2023-04-09T12:27:24;24.27;;;12.70;;
72301;SDS011;60235;52.234;5.186;2023-04-09T12:29:50;21.13;;;11.65;;
72301;SDS011;60235;52.234;5.186;2023-04-09T12:32:16;24.42;;;11.93;;
72301;SDS011;60235;52.234;5.186;2023-04-09T12:34:42;21.02;;;10.70;;
72301;SDS011;60235;52.234;5.186;2023-04-09T12:37:08;20.63;;;10.98;;
72301;SDS011;60235;52.234;5.186;2023-04-09T12:39:34;19.17;;;10.60;;
72301;SDS011;60235;52.234;5.186;2023-04-09T12:42:00;20.23;;;9.57;;
72301;SDS011;60235;52.234;5.186;2023-04-09T12:44:26;16.63;;;9.63;;
72301;SDS011;60235;52.234;5.186;2023-04-09T12:46:52;20.33;;;9.32;;
72301;SDS011;60235;52.234;5.186;2023-04-09T12:49:19;17.77;;;9.60;;
72301;SDS011;60235;52.234;5.186;2023-04-09T12:51:45;17.92;;;9.65;;
72301;SDS011;60235;52.234;5.186;2023-04-09T12:54:11;17.83;;;9.63;;
72301;SDS011;60235;52.234;5.186;2023-04-09T12:56:37;17.00;;;9.00;;
72301;SDS011;60235;52.234;5.186;2023-04-09T12:59:03;18.30;;;9.55;;
72301;SDS011;60235;52.234;5.186;2023-04-09T13:01:29;17.77;;;9.35;;
72301;SDS011;60235;52.234;5.186;2023-04-09T13:03:55;18.33;;;9.60;;
72301;SDS011;60235;52.234;5.186;2023-04-09T13:06:21;16.33;;;9.05;;
72301;SDS011;60235;52.234;5.186;2023-04-09T13:08:47;16.02;;;8.35;;
72301;SDS011;60235;52.234;5.186;2023-04-09T13:11:13;16.92;;;8.25;;
72301;SDS011;60235;52.234;5.186;2023-04-09T13:13:39;15.50;;;8.70;;
72301;SDS011;60235;52.234;5.186;2023-04-09T13:16:06;15.23;;;8.90;;
72301;SDS011;60235;52.234;5.186;2023-04-09T13:18:32;14.80;;;7.97;;
72301;SDS011;60235;52.234;5.186;2023-04-09T13:20:58;14.25;;;7.90;;
72301;SDS011;60235;52.234;5.186;2023-04-09T13:23:25;15.43;;;7.90;;
72301;SDS011;60235;52.234;5.186;2023-04-09T13:25:51;13.45;;;7.72;;
72301;SDS011;60235;52.234;5.186;2023-04-09T13:28:17;13.50;;;7.40;;
72301;SDS011;60235;52.234;5.186;2023-04-09T13:30:43;14.85;;;7.57;;
72301;SDS011;60235;52.234;5.186;2023-04-09T13:33:09;12.60;;;6.63;;
72301;SDS011;60235;52.234;5.186;2023-04-09T13:35:35;15.65;;;7.80;;
72301;SDS011;60235;52.234;5.186;2023-04-09T13:38:01;17.48;;;8.70;;
72301;SDS011;60235;52.234;5.186;2023-04-09T13:40:27;14.60;;;7.70;;
72301;SDS011;60235;52.234;5.186;2023-04-09T13:42:53;14.73;;;8.48;;
72301;SDS011;60235;52.234;5.186;2023-04-09T13:45:19;16.80;;;8.40;;
72301;SDS011;60235;52.234;5.186;2023-04-09T13:47:47;15.52;;;8.13;;
72301;SDS011;60235;52.234;5.186;2023-04-09T13:50:13;17.52;;;8.90;;
72301;SDS011;60235;52.234;5.186;2023-04-09T13:52:40;18.25;;;8.27;;
72301;SDS011;60235;52.234;5.186;2023-04-09T13:55:06;15.55;;;8.85;;
72301;SDS011;60235;52.234;5.186;2023-04-09T13:57:32;14.38;;;8.30;;
72301;SDS011;60235;52.234;5.186;2023-04-09T13:59:58;14.38;;;7.43;;
72301;SDS011;60235;52.234;5.186;2023-04-09T14:02:27;13.55;;;7.38;;
72301;SDS011;60235;52.234;5.186;2023-04-09T14:04:54;15.77;;;7.60;;
72301;SDS011;60235;52.234;5.186;2023-04-09T14:07:21;16.15;;;8.10;;
72301;SDS011;60235;52.234;5.186;2023-04-09T14:09:47;15.23;;;7.88;;
72301;SDS011;60235;52.234;5.186;2023-04-09T14:12:14;14.73;;;6.88;;
72301;SDS011;60235;52.234;5.186;2023-04-09T14:14:40;15.77;;;7.82;;
72301;SDS011;60235;52.234;5.186;2023-04-09T14:17:06;14.90;;;7.68;;
72301;SDS011;60235;52.234;5.186;2023-04-09T14:19:32;16.30;;;7.50;;
72301;SDS011;60235;52.234;5.186;2023-04-09T14:21:58;12.63;;;6.57;;
72301;SDS011;60235;52.234;5.186;2023-04-09T14:24:24;15.27;;;7.80;;
72301;SDS011;60235;52.234;5.186;2023-04-09T14:26:50;15.40;;;7.38;;
72301;SDS011;60235;52.234;5.186;2023-04-09T14:29:17;16.02;;;7.47;;
72301;SDS011;60235;52.234;5.186;2023-04-09T14:31:43;12.80;;;6.97;;
72301;SDS011;60235;52.234;5.186;2023-04-09T14:34:11;15.18;;;7.70;;
72301;SDS011;60235;52.234;5.186;2023-04-09T14:36:37;14.23;;;7.43;;
72301;SDS011;60235;52.234;5.186;2023-04-09T14:39:03;17.35;;;7.38;;
72301;SDS011;60235;52.234;5.186;2023-04-09T14:41:29;17.38;;;8.50;;
72301;SDS011;60235;52.234;5.186;2023-04-09T14:43:58;15.23;;;6.88;;
72301;SDS011;60235;52.234;5.186;2023-04-09T14:46:24;17.20;;;7.15;;
72301;SDS011;60235;52.234;5.186;2023-04-09T14:48:50;15.60;;;7.45;;